createdAt,value
2017-08-04T00:00:43.986Z,0
2017-08-04T00:01:42.444Z,0
2017-08-04T00:02:42.732Z,0
2017-08-04T00:03:42.753Z,0
2017-08-04T00:04:42.759Z,0
2017-08-04T00:05:42.815Z,0
2017-08-04T00:06:42.759Z,0
2017-08-04T00:07:42.486Z,0
2017-08-04T00:08:42.766Z,0
2017-08-04T00:09:42.478Z,0
2017-08-04T00:10:42.927Z,0
2017-08-04T00:11:42.176Z,0
2017-08-04T00:12:42.788Z,0
2017-08-04T00:13:42.477Z,0
2017-08-04T00:14:42.483Z,0
2017-08-04T00:15:42.623Z,0
2017-08-04T00:16:42.211Z,0
2017-08-04T00:17:42.790Z,0
2017-08-04T00:18:42.536Z,0
2017-08-04T00:19:42.801Z,0
2017-08-04T00:20:42.881Z,0
2017-08-04T00:21:42.215Z,0
2017-08-04T00:22:42.825Z,0
2017-08-04T00:23:42.815Z,0
2017-08-04T00:24:42.820Z,0
2017-08-04T00:25:42.845Z,0
2017-08-04T00:26:42.837Z,0
2017-08-04T00:27:42.826Z,0
2017-08-04T00:28:42.851Z,0
2017-08-04T00:29:45.374Z,0
2017-08-04T00:30:43.860Z,0
2017-08-04T00:31:42.271Z,0
2017-08-04T00:32:42.858Z,0
2017-08-04T00:33:42.865Z,0
2017-08-04T00:34:42.558Z,0
2017-08-04T00:35:42.988Z,0
2017-08-04T00:36:42.568Z,0
2017-08-04T00:37:42.564Z,0
2017-08-04T00:38:42.587Z,0
2017-08-04T00:39:42.876Z,0
2017-08-04T00:40:42.611Z,0
2017-08-04T00:41:42.896Z,0
2017-08-04T00:42:42.885Z,0
2017-08-04T00:43:42.596Z,0
2017-08-04T00:44:42.893Z,0
2017-08-04T00:45:42.949Z,0
2017-08-04T00:46:42.611Z,0
2017-08-04T00:47:42.918Z,0
2017-08-04T00:48:42.909Z,0
2017-08-04T00:49:42.923Z,0
2017-08-04T00:50:42.350Z,0
2017-08-04T00:51:42.922Z,0
2017-08-04T00:52:42.933Z,0
2017-08-04T00:53:42.941Z,0
2017-08-04T00:54:42.934Z,0
2017-08-04T00:55:42.800Z,0
2017-08-04T00:56:42.648Z,0
2017-08-04T00:57:42.371Z,0
2017-08-04T00:58:42.949Z,0
2017-08-04T00:59:42.657Z,0
2017-08-04T01:00:42.440Z,0
2017-08-04T01:01:48.059Z,0
2017-08-04T01:02:42.964Z,0
2017-08-04T01:03:42.685Z,0
2017-08-04T01:04:42.670Z,0
2017-08-04T01:05:43.125Z,0
2017-08-04T01:06:42.990Z,0
2017-08-04T01:07:42.679Z,0
2017-08-04T01:08:42.398Z,0
2017-08-04T01:09:42.690Z,0
2017-08-04T01:10:42.753Z,0
2017-08-04T01:11:42.995Z,0
2017-08-04T01:12:43.003Z,0
2017-08-04T01:13:42.412Z,0
2017-08-04T01:14:43.010Z,0
2017-08-04T01:15:42.756Z,0
2017-08-04T01:16:43.222Z,0
2017-08-04T01:17:42.729Z,0
2017-08-04T01:18:43.034Z,0
2017-08-04T01:19:43.070Z,0
2017-08-04T01:20:43.087Z,0
2017-08-04T01:21:42.733Z,0
2017-08-04T01:22:43.037Z,0
2017-08-04T01:23:43.037Z,0
2017-08-04T01:24:43.043Z,0
2017-08-04T01:25:43.140Z,0
2017-08-04T01:26:43.048Z,0
2017-08-04T01:27:42.756Z,0
2017-08-04T01:28:43.072Z,0
2017-08-04T01:29:42.784Z,0
2017-08-04T01:30:43.121Z,0
2017-08-04T01:31:46.178Z,0
2017-08-04T01:32:43.070Z,0
2017-08-04T01:33:43.084Z,0
2017-08-04T01:34:43.090Z,0
2017-08-04T01:35:43.150Z,0
2017-08-04T01:36:42.800Z,0
2017-08-04T01:37:43.109Z,0
2017-08-04T01:38:43.093Z,0
2017-08-04T01:39:42.802Z,0
2017-08-04T01:40:43.110Z,0
2017-08-04T01:41:43.139Z,0
2017-08-04T01:42:43.130Z,0
2017-08-04T01:43:43.123Z,0
2017-08-04T01:44:42.821Z,0
2017-08-04T01:45:42.965Z,0
2017-08-04T01:46:42.840Z,0
2017-08-04T01:47:42.879Z,0
2017-08-04T01:48:43.135Z,0
2017-08-04T01:49:43.148Z,0
2017-08-04T01:50:42.878Z,0
2017-08-04T01:51:42.543Z,0
2017-08-04T01:52:42.853Z,0
2017-08-04T01:53:43.159Z,0
2017-08-04T01:54:42.879Z,0
2017-08-04T01:55:42.946Z,0
2017-08-04T01:56:42.553Z,0
2017-08-04T01:57:42.861Z,0
2017-08-04T01:58:42.873Z,0
2017-08-04T01:59:43.177Z,0
2017-08-04T02:00:42.971Z,0
2017-08-04T02:01:42.880Z,0
2017-08-04T02:02:43.541Z,0
2017-08-04T02:03:42.885Z,0
2017-08-04T02:04:42.602Z,0
2017-08-04T02:05:43.233Z,0
2017-08-04T02:06:43.200Z,0
2017-08-04T02:07:42.916Z,0
2017-08-04T02:08:43.205Z,0
2017-08-04T02:09:42.913Z,0
2017-08-04T02:10:43.241Z,0
2017-08-04T02:11:42.934Z,0
2017-08-04T02:12:42.924Z,0
2017-08-04T02:13:42.623Z,0
2017-08-04T02:14:42.923Z,0
2017-08-04T02:15:43.304Z,0
2017-08-04T02:16:42.930Z,0
2017-08-04T02:17:43.286Z,0
2017-08-04T02:18:42.952Z,0
2017-08-04T02:19:43.251Z,0
2017-08-04T02:20:43.079Z,0
2017-08-04T02:21:42.958Z,0
2017-08-04T02:22:42.677Z,0
2017-08-04T02:23:43.265Z,0
2017-08-04T02:24:42.968Z,0
2017-08-04T02:25:42.794Z,0
2017-08-04T02:26:42.976Z,0
2017-08-04T02:27:42.974Z,0
2017-08-04T02:28:43.278Z,0
2017-08-04T02:29:43.277Z,0
2017-08-04T02:30:43.026Z,0
2017-08-04T02:31:43.292Z,0
2017-08-04T02:32:43.034Z,0
2017-08-04T02:33:42.997Z,0
2017-08-04T02:34:42.999Z,0
2017-08-04T02:35:43.335Z,0
2017-08-04T02:36:42.998Z,0
2017-08-04T02:37:43.022Z,0
2017-08-04T02:38:43.317Z,0
2017-08-04T02:39:43.021Z,0
2017-08-04T02:40:42.833Z,0
2017-08-04T02:41:43.021Z,0
2017-08-04T02:42:42.720Z,0
2017-08-04T02:43:43.034Z,0
2017-08-04T02:44:42.886Z,0
2017-08-04T02:45:43.408Z,0
2017-08-04T02:46:43.347Z,0
2017-08-04T02:47:43.397Z,0
2017-08-04T02:48:43.044Z,0
2017-08-04T02:49:43.045Z,0
2017-08-04T02:50:43.152Z,0
2017-08-04T02:51:43.366Z,0
2017-08-04T02:52:43.090Z,0
2017-08-04T02:53:43.050Z,0
2017-08-04T02:54:43.062Z,0
2017-08-04T02:55:43.465Z,0
2017-08-04T02:56:43.379Z,0
2017-08-04T02:57:43.396Z,0
2017-08-04T02:58:43.082Z,0
2017-08-04T02:59:43.083Z,0
2017-08-04T03:00:43.509Z,0
2017-08-04T03:01:43.401Z,0
2017-08-04T03:02:46.695Z,0
2017-08-04T03:03:43.095Z,0
2017-08-04T03:04:42.794Z,0
2017-08-04T03:05:43.476Z,0
2017-08-04T03:06:43.418Z,0
2017-08-04T03:07:43.107Z,0
2017-08-04T03:08:42.841Z,0
2017-08-04T03:09:43.119Z,0
2017-08-04T03:10:43.504Z,0
2017-08-04T03:11:43.448Z,0
2017-08-04T03:12:43.445Z,0
2017-08-04T03:13:43.443Z,0
2017-08-04T03:14:43.138Z,0
2017-08-04T03:15:43.535Z,0
2017-08-04T03:16:43.142Z,0
2017-08-04T03:17:45.518Z,0
2017-08-04T03:18:43.464Z,0
2017-08-04T03:19:43.469Z,0
2017-08-04T03:20:43.250Z,0
2017-08-04T03:21:42.862Z,0
2017-08-04T03:22:43.163Z,0
2017-08-04T03:23:43.176Z,0
2017-08-04T03:24:43.199Z,0
2017-08-04T03:25:43.330Z,0
2017-08-04T03:26:43.187Z,0
2017-08-04T03:27:42.890Z,4
2017-08-04T03:28:43.496Z,4
2017-08-04T03:29:43.499Z,4
2017-08-04T03:30:43.611Z,0
2017-08-04T03:31:43.502Z,4
2017-08-04T03:32:43.501Z,4
2017-08-04T03:33:43.506Z,4
2017-08-04T03:34:43.505Z,4
2017-08-04T03:35:43.621Z,8
2017-08-04T03:36:43.512Z,8
2017-08-04T03:37:43.513Z,8
2017-08-04T03:38:43.518Z,8
2017-08-04T03:39:43.514Z,12
2017-08-04T03:40:43.272Z,16
2017-08-04T03:41:43.531Z,16
2017-08-04T03:42:43.528Z,20
2017-08-04T03:43:43.232Z,20
2017-08-04T03:44:43.547Z,24
2017-08-04T03:45:43.625Z,24
2017-08-04T03:46:43.548Z,32
2017-08-04T03:47:43.237Z,36
2017-08-04T03:48:44.944Z,40
2017-08-04T03:49:43.540Z,44
2017-08-04T03:50:43.604Z,52
2017-08-04T03:51:43.259Z,56
2017-08-04T03:52:43.246Z,64
2017-08-04T03:53:43.263Z,72
2017-08-04T03:54:43.250Z,76
2017-08-04T03:55:43.360Z,84
2017-08-04T03:56:42.962Z,96
2017-08-04T03:57:43.267Z,104
2017-08-04T03:58:43.573Z,120
2017-08-04T03:59:43.271Z,128
2017-08-04T04:00:43.382Z,140
2017-08-04T04:01:43.279Z,152
2017-08-04T04:02:43.273Z,168
2017-08-04T04:03:44.430Z,180
2017-08-04T04:04:43.601Z,196
2017-08-04T04:05:43.628Z,208
2017-08-04T04:06:42.994Z,224
2017-08-04T04:07:43.292Z,244
2017-08-04T04:08:43.608Z,260
2017-08-04T04:09:43.612Z,280
2017-08-04T04:10:43.369Z,300
2017-08-04T04:11:43.608Z,320
2017-08-04T04:12:43.624Z,336
2017-08-04T04:13:43.316Z,356
2017-08-04T04:14:43.628Z,372
2017-08-04T04:15:43.672Z,396
2017-08-04T04:16:43.326Z,420
2017-08-04T04:17:43.623Z,432
2017-08-04T04:18:43.678Z,452
2017-08-04T04:19:43.338Z,476
2017-08-04T04:20:43.372Z,512
2017-08-04T04:21:43.641Z,544
2017-08-04T04:22:43.644Z,584
2017-08-04T04:23:43.374Z,620
2017-08-04T04:24:43.363Z,660
2017-08-04T04:25:43.659Z,712
2017-08-04T04:26:43.657Z,760
2017-08-04T04:27:43.375Z,820
2017-08-04T04:28:43.399Z,900
2017-08-04T04:29:43.670Z,992
2017-08-04T04:30:43.378Z,1052
2017-08-04T04:31:43.383Z,1076
2017-08-04T04:32:43.388Z,1112
2017-08-04T04:33:45.444Z,1196
2017-08-04T04:34:43.097Z,1456
2017-08-04T04:35:43.753Z,1384
2017-08-04T04:36:43.695Z,1300
2017-08-04T04:37:43.723Z,1360
2017-08-04T04:38:43.405Z,1484
2017-08-04T04:39:43.712Z,1808
2017-08-04T04:40:43.476Z,1892
2017-08-04T04:41:43.717Z,3000
2017-08-04T04:42:43.734Z,3976
2017-08-04T04:43:43.724Z,2416
2017-08-04T04:44:43.127Z,3432
2017-08-04T04:45:43.465Z,4788
2017-08-04T04:46:43.730Z,4192
2017-08-04T04:47:43.464Z,4840
2017-08-04T04:48:43.742Z,3548
2017-08-04T04:49:43.748Z,3740
2017-08-04T04:50:43.798Z,2344
2017-08-04T04:51:43.749Z,2952
2017-08-04T04:52:43.164Z,3768
2017-08-04T04:53:43.774Z,3844
2017-08-04T04:54:43.779Z,2392
2017-08-04T04:55:43.506Z,2372
2017-08-04T04:56:43.781Z,2420
2017-08-04T04:57:43.775Z,2500
2017-08-04T04:58:43.491Z,2632
2017-08-04T04:59:43.794Z,2804
2017-08-04T05:00:43.825Z,3700
2017-08-04T05:01:43.505Z,3988
2017-08-04T05:02:43.799Z,4888
2017-08-04T05:03:43.507Z,8824
2017-08-04T05:04:48.975Z,8548
2017-08-04T05:05:43.925Z,8264
2017-08-04T05:06:43.829Z,9252
2017-08-04T05:07:43.820Z,9368
2017-08-04T05:08:43.826Z,6056
2017-08-04T05:09:43.837Z,6864
2017-08-04T05:10:43.935Z,6664
2017-08-04T05:11:43.847Z,3688
2017-08-04T05:12:43.546Z,4524
2017-08-04T05:13:43.879Z,6248
2017-08-04T05:14:43.856Z,9860
2017-08-04T05:15:43.918Z,10520
2017-08-04T05:16:43.869Z,10892
2017-08-04T05:17:43.936Z,9304
2017-08-04T05:18:43.930Z,8868
2017-08-04T05:19:43.936Z,6580
2017-08-04T05:20:43.704Z,5724
2017-08-04T05:21:43.601Z,8320
2017-08-04T05:22:43.619Z,8836
2017-08-04T05:23:43.913Z,6472
2017-08-04T05:24:43.922Z,12728
2017-08-04T05:25:44.005Z,7672
2017-08-04T05:26:43.927Z,6012
2017-08-04T05:27:43.938Z,7880
2017-08-04T05:28:43.640Z,6820
2017-08-04T05:29:43.944Z,5400
2017-08-04T05:30:44.089Z,5328
2017-08-04T05:31:43.985Z,5540
2017-08-04T05:32:43.989Z,9232
2017-08-04T05:33:43.986Z,9328
2017-08-04T05:34:45.085Z,9344
2017-08-04T05:35:44.085Z,8736
2017-08-04T05:36:44.008Z,5836
2017-08-04T05:37:43.998Z,6780
2017-08-04T05:38:44.037Z,5888
2017-08-04T05:39:44.032Z,6192
2017-08-04T05:40:44.123Z,5752
2017-08-04T05:41:44.032Z,5440
2017-08-04T05:42:44.049Z,5280
2017-08-04T05:43:44.045Z,6184
2017-08-04T05:44:44.058Z,5116
2017-08-04T05:45:44.100Z,4996
2017-08-04T05:46:43.751Z,4968
2017-08-04T05:47:44.062Z,5020
2017-08-04T05:48:44.071Z,5100
2017-08-04T05:49:44.077Z,5232
2017-08-04T05:50:44.103Z,5440
2017-08-04T05:51:43.791Z,5528
2017-08-04T05:52:44.103Z,5496
2017-08-04T05:53:44.094Z,5560
2017-08-04T05:54:44.109Z,5532
2017-08-04T05:55:44.131Z,5548
2017-08-04T05:56:44.118Z,5452
2017-08-04T05:57:43.812Z,5372
2017-08-04T05:58:44.150Z,5480
2017-08-04T05:59:43.833Z,5612
2017-08-04T06:00:43.913Z,5880
2017-08-04T06:01:44.151Z,6488
2017-08-04T06:02:44.153Z,6048
2017-08-04T06:03:43.850Z,5944
2017-08-04T06:04:44.154Z,5844
2017-08-04T06:05:45.863Z,5928
2017-08-04T06:06:43.870Z,6020
2017-08-04T06:07:44.178Z,6104
2017-08-04T06:08:44.180Z,6224
2017-08-04T06:09:44.180Z,6448
2017-08-04T06:10:44.241Z,6520
2017-08-04T06:11:44.199Z,6588
2017-08-04T06:12:44.195Z,6672
2017-08-04T06:13:44.204Z,6804
2017-08-04T06:14:44.220Z,6884
2017-08-04T06:15:43.963Z,7152
2017-08-04T06:16:44.221Z,7032
2017-08-04T06:17:44.229Z,7132
2017-08-04T06:18:44.242Z,7248
2017-08-04T06:19:43.938Z,7396
2017-08-04T06:20:44.454Z,7408
2017-08-04T06:21:43.940Z,7408
2017-08-04T06:22:43.941Z,8428
2017-08-04T06:23:44.257Z,7220
2017-08-04T06:24:43.962Z,7472
2017-08-04T06:25:44.011Z,12760
2017-08-04T06:26:44.266Z,9672
2017-08-04T06:27:43.985Z,13068
2017-08-04T06:28:44.280Z,11860
2017-08-04T06:29:44.296Z,8300
2017-08-04T06:30:44.048Z,9516
2017-08-04T06:31:44.308Z,11204
2017-08-04T06:32:44.306Z,9168
2017-08-04T06:33:44.315Z,10240
2017-08-04T06:34:44.019Z,9648
2017-08-04T06:35:45.508Z,9928
2017-08-04T06:36:44.333Z,9500
2017-08-04T06:37:44.384Z,13288
2017-08-04T06:38:44.412Z,10268
2017-08-04T06:39:44.344Z,14036
2017-08-04T06:40:44.362Z,10028
2017-08-04T06:41:44.063Z,9948
2017-08-04T06:42:44.377Z,9476
2017-08-04T06:43:44.369Z,10140
2017-08-04T06:44:44.073Z,9884
2017-08-04T06:45:44.445Z,15560
2017-08-04T06:46:44.389Z,10360
2017-08-04T06:47:44.396Z,10832
2017-08-04T06:48:44.406Z,10228
2017-08-04T06:49:43.808Z,10136
2017-08-04T06:50:43.948Z,9132
2017-08-04T06:51:44.139Z,11760
2017-08-04T06:52:44.434Z,10256
2017-08-04T06:53:44.142Z,12428
2017-08-04T06:54:44.455Z,8744
2017-08-04T06:55:44.497Z,15144
2017-08-04T06:56:44.467Z,10524
2017-08-04T06:57:44.492Z,13256
2017-08-04T06:58:44.477Z,8060
2017-08-04T06:59:44.487Z,8100
2017-08-04T07:00:44.582Z,8100
2017-08-04T07:01:44.496Z,9188
2017-08-04T07:02:44.509Z,10756
2017-08-04T07:03:44.527Z,9000
2017-08-04T07:04:44.514Z,8168
2017-08-04T07:05:46.694Z,8536
2017-08-04T07:06:44.534Z,9936
2017-08-04T07:07:43.935Z,9324
2017-08-04T07:08:44.543Z,16544
2017-08-04T07:09:44.553Z,13016
2017-08-04T07:10:44.287Z,11584
2017-08-04T07:11:44.590Z,12164
2017-08-04T07:12:44.585Z,13520
2017-08-04T07:13:44.282Z,10560
2017-08-04T07:14:44.595Z,19520
2017-08-04T07:15:44.610Z,17792
2017-08-04T07:16:44.618Z,12760
2017-08-04T07:17:44.626Z,10304
2017-08-04T07:18:44.623Z,19456
2017-08-04T07:19:44.644Z,19072
2017-08-04T07:20:44.711Z,13372
2017-08-04T07:21:44.345Z,10144
2017-08-04T07:22:44.722Z,11520
2017-08-04T07:23:44.672Z,11456
2017-08-04T07:24:44.674Z,18112
2017-08-04T07:25:44.695Z,13944
2017-08-04T07:26:44.085Z,12100
2017-08-04T07:27:44.403Z,10940
2017-08-04T07:28:44.709Z,14892
2017-08-04T07:29:44.728Z,14728
2017-08-04T07:30:44.806Z,11864
2017-08-04T07:31:44.449Z,11716
2017-08-04T07:32:44.762Z,9704
2017-08-04T07:33:44.767Z,11576
2017-08-04T07:34:44.769Z,10948
2017-08-04T07:35:44.889Z,12588
2017-08-04T07:36:44.801Z,10812
2017-08-04T07:37:44.512Z,11088
2017-08-04T07:38:44.502Z,10036
2017-08-04T07:39:44.814Z,9292
2017-08-04T07:40:44.836Z,9028
2017-08-04T07:41:44.833Z,9208
2017-08-04T07:42:44.848Z,9372
2017-08-04T07:43:44.535Z,9328
2017-08-04T07:44:44.854Z,10296
2017-08-04T07:45:44.639Z,10060
2017-08-04T07:46:44.868Z,10356
2017-08-04T07:47:44.878Z,9528
2017-08-04T07:48:44.881Z,8920
2017-08-04T07:49:44.888Z,8992
2017-08-04T07:50:44.968Z,8996
2017-08-04T07:51:44.650Z,10548
2017-08-04T07:52:44.918Z,10112
2017-08-04T07:53:44.918Z,13736
2017-08-04T07:54:44.938Z,15628
2017-08-04T07:55:44.990Z,14604
2017-08-04T07:56:45.734Z,15092
2017-08-04T07:57:44.637Z,16448
2017-08-04T07:58:44.361Z,16736
2017-08-04T07:59:44.346Z,11980
2017-08-04T08:00:44.714Z,13060
2017-08-04T08:01:44.692Z,15592
2017-08-04T08:02:44.994Z,16896
2017-08-04T08:03:44.701Z,16832
2017-08-04T08:04:45.014Z,16960
2017-08-04T08:05:45.148Z,16320
2017-08-04T08:06:47.096Z,14404
2017-08-04T08:07:45.033Z,16192
2017-08-04T08:08:44.759Z,14228
2017-08-04T08:09:45.043Z,17056
2017-08-04T08:10:45.145Z,16896
2017-08-04T08:11:45.066Z,16928
2017-08-04T08:12:45.084Z,16896
2017-08-04T08:13:45.087Z,16128
2017-08-04T08:14:44.780Z,16992
2017-08-04T08:15:45.221Z,17024
2017-08-04T08:16:44.815Z,17152
2017-08-04T08:17:44.816Z,15260
2017-08-04T08:18:45.126Z,14548
2017-08-04T08:19:44.558Z,12468
2017-08-04T08:20:45.310Z,9960
2017-08-04T08:21:46.215Z,10752
2017-08-04T08:22:44.603Z,13580
2017-08-04T08:23:44.893Z,15748
2017-08-04T08:24:44.901Z,15504
2017-08-04T08:25:45.253Z,15072
2017-08-04T08:26:45.221Z,14776
2017-08-04T08:27:44.917Z,14392
2017-08-04T08:28:44.933Z,14068
2017-08-04T08:29:44.957Z,13824
2017-08-04T08:30:45.008Z,13692
2017-08-04T08:31:44.692Z,13592
2017-08-04T08:32:45.285Z,13516
2017-08-04T08:33:45.036Z,13432
2017-08-04T08:34:45.312Z,13284
2017-08-04T08:35:45.094Z,13160
2017-08-04T08:36:45.341Z,12996
2017-08-04T08:37:45.042Z,12912
2017-08-04T08:38:45.350Z,12864
2017-08-04T08:39:45.070Z,12856
2017-08-04T08:40:45.467Z,12964
2017-08-04T08:41:45.097Z,12944
2017-08-04T08:42:45.407Z,12884
2017-08-04T08:43:45.110Z,12896
2017-08-04T08:44:45.427Z,12980
2017-08-04T08:45:45.226Z,13032
2017-08-04T08:46:44.843Z,13040
2017-08-04T08:47:45.470Z,13076
2017-08-04T08:48:45.176Z,13212
2017-08-04T08:49:45.484Z,13356
2017-08-04T08:50:45.290Z,13592
2017-08-04T08:51:45.207Z,13792
2017-08-04T08:52:45.263Z,14072
2017-08-04T08:53:45.238Z,14380
2017-08-04T08:54:45.549Z,14616
2017-08-04T08:55:45.014Z,14980
2017-08-04T08:56:45.556Z,15332
2017-08-04T08:57:45.271Z,15736
2017-08-04T08:58:45.580Z,16128
2017-08-04T08:59:45.293Z,16416
2017-08-04T09:00:45.336Z,16640
2017-08-04T09:01:45.306Z,17024
2017-08-04T09:02:46.422Z,17472
2017-08-04T09:03:45.334Z,11744
2017-08-04T09:04:45.353Z,17792
2017-08-04T09:05:45.440Z,17056
2017-08-04T09:06:45.663Z,16832
2017-08-04T09:07:46.044Z,16928
2017-08-04T09:08:45.683Z,17376
2017-08-04T09:09:45.709Z,17184
2017-08-04T09:10:45.756Z,17440
2017-08-04T09:11:45.716Z,17568
2017-08-04T09:12:45.729Z,17792
2017-08-04T09:13:45.737Z,17568
2017-08-04T09:14:45.456Z,17408
2017-08-04T09:15:45.520Z,11788
2017-08-04T09:16:45.168Z,15044
2017-08-04T09:17:45.483Z,11808
2017-08-04T09:18:45.473Z,12100
2017-08-04T09:19:45.786Z,12504
2017-08-04T09:20:45.558Z,12680
2017-08-04T09:21:45.196Z,12916
2017-08-04T09:22:45.213Z,16800
2017-08-04T09:23:45.833Z,13148
2017-08-04T09:24:45.838Z,16032
2017-08-04T09:25:45.635Z,16128
2017-08-04T09:26:45.538Z,14616
2017-08-04T09:27:45.854Z,18752
2017-08-04T09:28:45.876Z,16224
2017-08-04T09:29:45.605Z,16128
2017-08-04T09:30:45.958Z,17760
2017-08-04T09:31:45.895Z,14104
2017-08-04T09:32:45.597Z,13832
2017-08-04T09:33:45.925Z,15448
2017-08-04T09:34:45.638Z,14124
2017-08-04T09:35:46.018Z,14536
2017-08-04T09:36:45.352Z,16736
2017-08-04T09:37:45.956Z,13152
2017-08-04T09:38:45.909Z,12692
2017-08-04T09:39:45.675Z,12328
2017-08-04T09:40:46.037Z,11948
2017-08-04T09:41:45.688Z,11672
2017-08-04T09:42:45.385Z,11652
2017-08-04T09:43:45.401Z,11952
2017-08-04T09:44:46.021Z,11944
2017-08-04T09:45:45.820Z,12888
2017-08-04T09:46:45.722Z,12156
2017-08-04T09:47:46.081Z,12232
2017-08-04T09:48:45.740Z,12324
2017-08-04T09:49:45.760Z,12544
2017-08-04T09:50:45.768Z,13532
2017-08-04T09:51:46.061Z,12712
2017-08-04T09:52:46.066Z,16064
2017-08-04T09:53:46.472Z,15288
2017-08-04T09:54:45.769Z,13928
2017-08-04T09:55:46.129Z,13660
2017-08-04T09:56:46.088Z,15140
2017-08-04T09:57:45.489Z,16672
2017-08-04T09:58:46.098Z,17856
2017-08-04T09:59:46.110Z,17664
2017-08-04T10:00:45.868Z,14024
2017-08-04T10:01:45.526Z,14048
2017-08-04T10:02:45.833Z,14332
2017-08-04T10:03:46.140Z,13676
2017-08-04T10:04:46.145Z,14148
2017-08-04T10:05:45.981Z,14276
2017-08-04T10:06:45.563Z,13900
2017-08-04T10:07:46.166Z,13776
2017-08-04T10:08:46.327Z,13164
2017-08-04T10:09:45.896Z,12892
2017-08-04T10:10:46.227Z,16384
2017-08-04T10:11:45.620Z,16640
2017-08-04T10:12:45.609Z,15968
2017-08-04T10:13:45.909Z,13240
2017-08-04T10:14:46.220Z,16032
2017-08-04T10:15:45.973Z,16928
2017-08-04T10:16:46.264Z,16928
2017-08-04T10:17:45.949Z,16256
2017-08-04T10:18:46.248Z,16800
2017-08-04T10:19:45.955Z,16832
2017-08-04T10:20:46.362Z,15012
2017-08-04T10:21:45.969Z,14224
2017-08-04T10:22:46.279Z,13080
2017-08-04T10:23:45.753Z,13892
2017-08-04T10:24:46.301Z,16672
2017-08-04T10:25:46.410Z,14740
2017-08-04T10:26:46.312Z,14704
2017-08-04T10:27:46.321Z,16512
2017-08-04T10:28:46.050Z,16736
2017-08-04T10:29:46.339Z,14040
2017-08-04T10:30:46.145Z,16288
2017-08-04T10:31:46.045Z,16832
2017-08-04T10:32:46.070Z,17120
2017-08-04T10:33:46.059Z,16832
2017-08-04T10:34:46.369Z,16576
2017-08-04T10:35:46.484Z,15616
2017-08-04T10:36:46.386Z,16416
2017-08-04T10:37:46.096Z,16000
2017-08-04T10:38:47.146Z,16064
2017-08-04T10:39:46.115Z,16416
2017-08-04T10:40:46.520Z,15356
2017-08-04T10:41:46.437Z,16832
2017-08-04T10:42:46.436Z,17120
2017-08-04T10:43:46.453Z,16064
2017-08-04T10:44:46.154Z,15648
2017-08-04T10:45:46.222Z,14188
2017-08-04T10:46:46.187Z,13424
2017-08-04T10:47:46.472Z,12508
2017-08-04T10:48:47.283Z,12456
2017-08-04T10:49:46.502Z,12492
2017-08-04T10:50:46.513Z,12632
2017-08-04T10:51:46.214Z,12524
2017-08-04T10:52:46.208Z,12588
2017-08-04T10:53:46.216Z,12656
2017-08-04T10:54:46.529Z,16480
2017-08-04T10:55:46.625Z,13956
2017-08-04T10:56:46.241Z,13748
2017-08-04T10:57:46.598Z,15452
2017-08-04T10:58:46.562Z,14452
2017-08-04T10:59:46.258Z,16512
2017-08-04T11:00:46.623Z,13288
2017-08-04T11:01:46.287Z,13848
2017-08-04T11:02:46.595Z,14180
2017-08-04T11:03:45.994Z,13372
2017-08-04T11:04:46.604Z,13912
2017-08-04T11:05:46.682Z,13972
2017-08-04T11:06:46.643Z,13320
2017-08-04T11:07:46.637Z,14304
2017-08-04T11:08:46.345Z,12984
2017-08-04T11:09:47.954Z,12732
2017-08-04T11:10:46.073Z,12520
2017-08-04T11:11:46.357Z,14000
2017-08-04T11:12:46.680Z,12320
2017-08-04T11:13:46.369Z,11008
2017-08-04T11:14:46.689Z,11316
2017-08-04T11:15:46.440Z,11264
2017-08-04T11:16:46.399Z,13024
2017-08-04T11:17:46.403Z,13716
2017-08-04T11:18:46.408Z,13880
2017-08-04T11:19:46.415Z,14864
2017-08-04T11:20:46.509Z,14644
2017-08-04T11:21:46.730Z,14212
2017-08-04T11:22:46.445Z,13616
2017-08-04T11:23:46.748Z,12496
2017-08-04T11:24:47.104Z,12472
2017-08-04T11:25:46.794Z,12644
2017-08-04T11:26:46.179Z,13168
2017-08-04T11:27:46.792Z,13512
2017-08-04T11:28:46.778Z,12916
2017-08-04T11:29:46.785Z,13576
2017-08-04T11:30:46.228Z,13268
2017-08-04T11:31:46.803Z,12584
2017-08-04T11:32:46.838Z,12308
2017-08-04T11:33:46.517Z,12668
2017-08-04T11:34:46.525Z,12252
2017-08-04T11:35:45.998Z,12136
2017-08-04T11:36:46.245Z,11848
2017-08-04T11:37:46.846Z,11352
2017-08-04T11:38:46.868Z,10660
2017-08-04T11:39:49.310Z,9904
2017-08-04T11:40:46.870Z,9480
2017-08-04T11:41:46.577Z,9176
2017-08-04T11:42:46.889Z,8700
2017-08-04T11:43:46.604Z,8340
2017-08-04T11:44:46.605Z,8240
2017-08-04T11:45:46.927Z,8124
2017-08-04T11:46:46.926Z,8008
2017-08-04T11:47:46.635Z,7804
2017-08-04T11:48:46.939Z,7584
2017-08-04T11:49:46.932Z,7656
2017-08-04T11:50:46.676Z,7984
2017-08-04T11:51:46.341Z,8084
2017-08-04T11:52:46.654Z,7832
2017-08-04T11:53:46.659Z,7484
2017-08-04T11:54:47.041Z,7336
2017-08-04T11:55:47.084Z,7400
2017-08-04T11:56:46.989Z,7596
2017-08-04T11:57:46.995Z,7616
2017-08-04T11:58:46.704Z,7804
2017-08-04T11:59:47.015Z,7956
2017-08-04T12:00:47.017Z,8084
2017-08-04T12:01:47.023Z,8088
2017-08-04T12:02:46.718Z,8308
2017-08-04T12:03:46.464Z,8668
2017-08-04T12:04:47.031Z,8540
2017-08-04T12:05:47.138Z,8192
2017-08-04T12:06:46.765Z,7900
2017-08-04T12:07:46.761Z,7780
2017-08-04T12:08:46.770Z,7596
2017-08-04T12:09:47.624Z,7172
2017-08-04T12:10:47.147Z,6836
2017-08-04T12:11:47.089Z,6652
2017-08-04T12:12:46.793Z,6576
2017-08-04T12:13:46.794Z,6884
2017-08-04T12:14:47.108Z,6972
2017-08-04T12:15:46.260Z,6676
2017-08-04T12:16:46.808Z,6356
2017-08-04T12:17:47.116Z,6532
2017-08-04T12:18:46.819Z,6880
2017-08-04T12:19:46.831Z,7016
2017-08-04T12:20:46.893Z,7228
2017-08-04T12:21:47.146Z,6956
2017-08-04T12:22:46.859Z,6556
2017-08-04T12:23:47.151Z,6596
2017-08-04T12:24:47.210Z,6872
2017-08-04T12:25:46.941Z,6972
2017-08-04T12:26:47.180Z,7112
2017-08-04T12:27:46.586Z,7616
2017-08-04T12:28:47.199Z,8308
2017-08-04T12:29:47.208Z,8856
2017-08-04T12:30:46.900Z,9380
2017-08-04T12:31:47.208Z,9860
2017-08-04T12:32:47.211Z,10100
2017-08-04T12:33:47.215Z,10108
2017-08-04T12:34:46.919Z,10076
2017-08-04T12:35:47.266Z,10236
2017-08-04T12:36:47.242Z,10376
2017-08-04T12:37:47.267Z,10628
2017-08-04T12:38:46.660Z,11040
2017-08-04T12:39:51.450Z,11376
2017-08-04T12:40:46.971Z,11548
2017-08-04T12:41:47.287Z,11628
2017-08-04T12:42:46.712Z,11400
2017-08-04T12:43:46.985Z,10548
2017-08-04T12:44:47.302Z,9840
2017-08-04T12:45:47.404Z,8984
2017-08-04T12:46:47.002Z,8472
2017-08-04T12:47:47.299Z,8340
2017-08-04T12:48:46.719Z,8368
2017-08-04T12:49:47.348Z,8492
2017-08-04T12:50:47.130Z,8812
2017-08-04T12:51:47.062Z,9188
2017-08-04T12:52:47.350Z,9132
2017-08-04T12:53:47.046Z,8760
2017-08-04T12:54:47.379Z,8668
2017-08-04T12:55:47.412Z,8484
2017-08-04T12:56:47.075Z,8328
2017-08-04T12:57:46.802Z,8216
2017-08-04T12:58:47.092Z,7912
2017-08-04T12:59:47.116Z,7516
2017-08-04T13:00:47.248Z,7376
2017-08-04T13:01:47.127Z,7352
2017-08-04T13:02:47.421Z,7572
2017-08-04T13:03:47.129Z,7724
2017-08-04T13:04:46.831Z,7552
2017-08-04T13:05:47.143Z,7252
2017-08-04T13:06:47.456Z,7032
2017-08-04T13:07:47.158Z,6732
2017-08-04T13:08:47.444Z,6340
2017-08-04T13:09:47.181Z,6012
2017-08-04T13:10:47.558Z,5848
2017-08-04T13:11:46.865Z,5812
2017-08-04T13:12:47.498Z,5828
2017-08-04T13:13:47.202Z,5812
2017-08-04T13:14:47.487Z,5688
2017-08-04T13:15:47.280Z,5544
2017-08-04T13:16:47.512Z,5544
2017-08-04T13:17:47.502Z,5492
2017-08-04T13:18:47.254Z,5300
2017-08-04T13:19:47.234Z,5056
2017-08-04T13:20:46.922Z,4920
2017-08-04T13:21:47.238Z,4776
2017-08-04T13:22:47.531Z,4568
2017-08-04T13:23:47.533Z,4300
2017-08-04T13:24:47.546Z,4148
2017-08-04T13:25:47.647Z,4080
2017-08-04T13:26:48.578Z,4064
2017-08-04T13:27:46.962Z,4084
2017-08-04T13:28:47.571Z,3980
2017-08-04T13:29:47.261Z,3892
2017-08-04T13:30:47.644Z,3868
2017-08-04T13:31:47.583Z,3780
2017-08-04T13:32:47.593Z,3756